sensor_id;sensor_type;location;lat;lon;timestamp;pressure;altitude;pressure_sealevel;temperature
69785;BMP280;14177;51.520;6.764;2022-12-29T00:01:06;100045.91;;;12.14
69785;BMP280;14177;51.520;6.764;2022-12-29T00:03:39;100040.56;;;12.17
69785;BMP280;14177;51.520;6.764;2022-12-29T00:06:11;100026.31;;;12.07
69785;BMP280;14177;51.520;6.764;2022-12-29T00:08:40;100028.97;;;12.06
69785;BMP280;14177;51.520;6.764;2022-12-29T00:11:17;100018.50;;;12.07
69785;BMP280;14177;51.520;6.764;2022-12-29T00:13:45;100022.31;;;12.00
69785;BMP280;14177;51.520;6.764;2022-12-29T00:16:33;100020.63;;;11.99
69785;BMP280;14177;51.520;6.764;2022-12-29T00:19:01;100019.16;;;11.94
69785;BMP280;14177;51.520;6.764;2022-12-29T00:21:31;100026.06;;;11.76
69785;BMP280;14177;51.520;6.764;2022-12-29T00:24:34;100023.91;;;11.67
69785;BMP280;14177;51.520;6.764;2022-12-29T00:27:19;100014.00;;;11.57
69785;BMP280;14177;51.520;6.764;2022-12-29T00:30:23;100010.63;;;11.55
69785;BMP280;14177;51.520;6.764;2022-12-29T00:33:18;100007.13;;;11.56
69785;BMP280;14177;51.520;6.764;2022-12-29T00:36:16;99997.63;;;11.55
69785;BMP280;14177;51.520;6.764;2022-12-29T00:38:51;99998.19;;;11.61
69785;BMP280;14177;51.520;6.764;2022-12-29T00:41:38;99987.34;;;11.70
69785;BMP280;14177;51.520;6.764;2022-12-29T00:44:24;99991.19;;;11.80
69785;BMP280;14177;51.520;6.764;2022-12-29T00:46:51;99980.28;;;11.91
69785;BMP280;14177;51.520;6.764;2022-12-29T00:49:18;99974.06;;;11.93
69785;BMP280;14177;51.520;6.764;2022-12-29T00:52:05;99975.47;;;12.00
69785;BMP280;14177;51.520;6.764;2022-12-29T00:54:36;99975.59;;;11.97
69785;BMP280;14177;51.520;6.764;2022-12-29T00:57:06;99973.09;;;11.96
69785;BMP280;14177;51.520;6.764;2022-12-29T00:59:39;99972.22;;;11.95
69785;BMP280;14177;51.520;6.764;2022-12-29T01:02:06;99979.38;;;11.92
69785;BMP280;14177;51.520;6.764;2022-12-29T01:04:34;99975.00;;;11.92
69785;BMP280;14177;51.520;6.764;2022-12-29T01:07:01;99970.94;;;11.87
69785;BMP280;14177;51.520;6.764;2022-12-29T01:09:28;99972.81;;;11.83
69785;BMP280;14177;51.520;6.764;2022-12-29T01:12:15;99970.50;;;11.77
69785;BMP280;14177;51.520;6.764;2022-12-29T01:14:44;99964.53;;;11.75
69785;BMP280;14177;51.520;6.764;2022-12-29T01:17:11;99964.09;;;11.84
69785;BMP280;14177;51.520;6.764;2022-12-29T01:19:40;99959.81;;;11.83
69785;BMP280;14177;51.520;6.764;2022-12-29T01:22:07;99963.19;;;11.85
69785;BMP280;14177;51.520;6.764;2022-12-29T01:24:34;99964.19;;;11.83
69785;BMP280;14177;51.520;6.764;2022-12-29T01:27:01;99959.81;;;11.83
69785;BMP280;14177;51.520;6.764;2022-12-29T01:29:29;99946.66;;;11.86
69785;BMP280;14177;51.520;6.764;2022-12-29T01:31:56;99950.59;;;11.95
69785;BMP280;14177;51.520;6.764;2022-12-29T01:34:24;99941.31;;;12.06
69785;BMP280;14177;51.520;6.764;2022-12-29T01:36:51;99926.94;;;12.16
69785;BMP280;14177;51.520;6.764;2022-12-29T01:39:19;99930.81;;;12.24
69785;BMP280;14177;51.520;6.764;2022-12-29T01:41:46;99932.97;;;12.33
69785;BMP280;14177;51.520;6.764;2022-12-29T01:44:50;99944.66;;;12.42
69785;BMP280;14177;51.520;6.764;2022-12-29T01:47:38;99923.06;;;12.40
69785;BMP280;14177;51.520;6.764;2022-12-29T01:50:15;99927.56;;;12.53
69785;BMP280;14177;51.520;6.764;2022-12-29T01:53:00;99945.56;;;12.58
69785;BMP280;14177;51.520;6.764;2022-12-29T01:55:32;99924.50;;;12.62
69785;BMP280;14177;51.520;6.764;2022-12-29T01:58:04;99924.25;;;12.67
69785;BMP280;14177;51.520;6.764;2022-12-29T02:00:33;99929.56;;;12.65
69785;BMP280;14177;51.520;6.764;2022-12-29T02:03:01;99929.28;;;12.70
69785;BMP280;14177;51.520;6.764;2022-12-29T02:05:42;99926.53;;;12.73
69785;BMP280;14177;51.520;6.764;2022-12-29T02:08:13;99934.34;;;12.73
69785;BMP280;14177;51.520;6.764;2022-12-29T02:10:42;99922.91;;;12.75
69785;BMP280;14177;51.520;6.764;2022-12-29T02:13:11;99938.63;;;12.74
69785;BMP280;14177;51.520;6.764;2022-12-29T02:16:23;99928.66;;;12.82
69785;BMP280;14177;51.520;6.764;2022-12-29T02:31:58;99928.88;;;12.94
69785;BMP280;14177;51.520;6.764;2022-12-29T02:38:20;99901.81;;;12.97
69785;BMP280;14177;51.520;6.764;2022-12-29T02:41:08;99902.13;;;12.91
69785;BMP280;14177;51.520;6.764;2022-12-29T02:49:49;99908.25;;;12.90
69785;BMP280;14177;51.520;6.764;2022-12-29T02:52:30;99906.84;;;13.00
69785;BMP280;14177;51.520;6.764;2022-12-29T02:55:03;99891.97;;;13.02
69785;BMP280;14177;51.520;6.764;2022-12-29T02:57:34;99891.97;;;13.02
69785;BMP280;14177;51.520;6.764;2022-12-29T03:00:14;99892.41;;;13.10
69785;BMP280;14177;51.520;6.764;2022-12-29T03:08:49;99896.00;;;13.07
69785;BMP280;14177;51.520;6.764;2022-12-29T03:11:25;99885.16;;;12.99
69785;BMP280;14177;51.520;6.764;2022-12-29T03:17:55;99889.00;;;12.92
69785;BMP280;14177;51.520;6.764;2022-12-29T03:20:38;99887.91;;;12.96
69785;BMP280;14177;51.520;6.764;2022-12-29T03:23:07;99890.53;;;12.96
69785;BMP280;14177;51.520;6.764;2022-12-29T03:25:41;99877.59;;;12.95
69785;BMP280;14177;51.520;6.764;2022-12-29T03:28:19;99876.91;;;12.91
69785;BMP280;14177;51.520;6.764;2022-12-29T03:30:48;99883.88;;;12.91
69785;BMP280;14177;51.520;6.764;2022-12-29T03:33:25;99877.19;;;12.85
69785;BMP280;14177;51.520;6.764;2022-12-29T03:36:03;99875.84;;;12.78
69785;BMP280;14177;51.520;6.764;2022-12-29T03:41:15;99861.13;;;12.77
69785;BMP280;14177;51.520;6.764;2022-12-29T03:43:45;99847.28;;;12.77
69785;BMP280;14177;51.520;6.764;2022-12-29T03:46:12;99845.91;;;12.85
69785;BMP280;14177;51.520;6.764;2022-12-29T03:48:41;99853.38;;;12.93
69785;BMP280;14177;51.520;6.764;2022-12-29T03:51:09;99852.28;;;12.97
69785;BMP280;14177;51.520;6.764;2022-12-29T03:53:37;99857.22;;;13.01
69785;BMP280;14177;51.520;6.764;2022-12-29T03:56:08;99836.09;;;12.90
69785;BMP280;14177;51.520;6.764;2022-12-29T03:58:49;99828.09;;;12.78
69785;BMP280;14177;51.520;6.764;2022-12-29T04:01:22;99818.34;;;12.66
69785;BMP280;14177;51.520;6.764;2022-12-29T04:03:53;99815.56;;;12.69
69785;BMP280;14177;51.520;6.764;2022-12-29T04:06:25;99824.09;;;12.72
69785;BMP280;14177;51.520;6.764;2022-12-29T04:09:02;99820.03;;;12.67
69785;BMP280;14177;51.520;6.764;2022-12-29T04:11:33;99808.84;;;12.65
69785;BMP280;14177;51.520;6.764;2022-12-29T04:14:02;99827.56;;;12.56
69785;BMP280;14177;51.520;6.764;2022-12-29T04:16:31;99816.56;;;12.51
69785;BMP280;14177;51.520;6.764;2022-12-29T04:19:01;99800.34;;;12.46
69785;BMP280;14177;51.520;6.764;2022-12-29T04:21:29;99823.13;;;12.42
69785;BMP280;14177;51.520;6.764;2022-12-29T04:23:57;99806.78;;;12.39
69785;BMP280;14177;51.520;6.764;2022-12-29T04:26:25;99813.28;;;12.32
69785;BMP280;14177;51.520;6.764;2022-12-29T04:29:07;99794.13;;;12.33
69785;BMP280;14177;51.520;6.764;2022-12-29T04:32:04;99799.34;;;12.33
69785;BMP280;14177;51.520;6.764;2022-12-29T04:34:34;99804.78;;;12.44
69785;BMP280;14177;51.520;6.764;2022-12-29T04:37:04;99794.31;;;12.45
69785;BMP280;14177;51.520;6.764;2022-12-29T04:39:31;99804.28;;;12.53
69785;BMP280;14177;51.520;6.764;2022-12-29T04:41:59;99802.13;;;12.61
69785;BMP280;14177;51.520;6.764;2022-12-29T04:44:27;99792.81;;;12.72
69785;BMP280;14177;51.520;6.764;2022-12-29T04:47:00;99804.56;;;12.79
69785;BMP280;14177;51.520;6.764;2022-12-29T04:49:49;99843.56;;;12.81
69785;BMP280;14177;51.520;6.764;2022-12-29T04:52:42;99853.91;;;12.67
69785;BMP280;14177;51.520;6.764;2022-12-29T04:55:12;99831.25;;;12.36
69785;BMP280;14177;51.520;6.764;2022-12-29T04:57:44;99841.72;;;12.03
69785;BMP280;14177;51.520;6.764;2022-12-29T05:00:46;99853.75;;;11.71
69785;BMP280;14177;51.520;6.764;2022-12-29T05:03:15;99866.88;;;11.51
69785;BMP280;14177;51.520;6.764;2022-12-29T05:05:44;99876.38;;;11.34
69785;BMP280;14177;51.520;6.764;2022-12-29T05:08:12;99889.28;;;11.18
69785;BMP280;14177;51.520;6.764;2022-12-29T05:10:44;99872.84;;;10.99
69785;BMP280;14177;51.520;6.764;2022-12-29T05:13:13;99883.06;;;10.86
69785;BMP280;14177;51.520;6.764;2022-12-29T05:15:49;99900.59;;;10.81
69785;BMP280;14177;51.520;6.764;2022-12-29T05:18:17;99913.72;;;10.78
69785;BMP280;14177;51.520;6.764;2022-12-29T05:21:00;99907.00;;;10.74
69785;BMP280;14177;51.520;6.764;2022-12-29T05:23:28;99895.09;;;10.68
69785;BMP280;14177;51.520;6.764;2022-12-29T05:25:59;99878.69;;;10.68
69785;BMP280;14177;51.520;6.764;2022-12-29T05:28:44;99867.53;;;10.66
69785;BMP280;14177;51.520;6.764;2022-12-29T05:31:16;99874.41;;;10.67
69785;BMP280;14177;51.520;6.764;2022-12-29T05:33:44;99872.38;;;10.73
69785;BMP280;14177;51.520;6.764;2022-12-29T05:36:15;99873.22;;;10.74
69785;BMP280;14177;51.520;6.764;2022-12-29T05:38:46;99899.56;;;10.85
69785;BMP280;14177;51.520;6.764;2022-12-29T05:41:14;99871.03;;;11.01
69785;BMP280;14177;51.520;6.764;2022-12-29T05:43:58;99855.63;;;11.15
69785;BMP280;14177;51.520;6.764;2022-12-29T05:46:28;99878.94;;;11.35
69785;BMP280;14177;51.520;6.764;2022-12-29T05:49:17;99900.84;;;11.48
69785;BMP280;14177;51.520;6.764;2022-12-29T05:52:03;99875.63;;;11.67
69785;BMP280;14177;51.520;6.764;2022-12-29T05:54:32;99887.41;;;11.74
69785;BMP280;14177;51.520;6.764;2022-12-29T05:57:00;99908.84;;;11.79
69785;BMP280;14177;51.520;6.764;2022-12-29T05:59:29;99905.63;;;11.91
69785;BMP280;14177;51.520;6.764;2022-12-29T06:01:57;99915.91;;;11.94
69785;BMP280;14177;51.520;6.764;2022-12-29T06:04:24;99916.75;;;11.95
69785;BMP280;14177;51.520;6.764;2022-12-29T06:06:51;99915.91;;;11.94
69785;BMP280;14177;51.520;6.764;2022-12-29T06:09:25;99915.75;;;11.97
69785;BMP280;14177;51.520;6.764;2022-12-29T06:11:53;99924.78;;;11.90
69785;BMP280;14177;51.520;6.764;2022-12-29T06:14:20;99930.13;;;11.87
69785;BMP280;14177;51.520;6.764;2022-12-29T06:16:47;99937.16;;;11.85
69785;BMP280;14177;51.520;6.764;2022-12-29T06:19:16;99945.97;;;11.83
69785;BMP280;14177;51.520;6.764;2022-12-29T06:21:53;99944.44;;;11.79
69785;BMP280;14177;51.520;6.764;2022-12-29T06:24:34;99945.28;;;11.79
69785;BMP280;14177;51.520;6.764;2022-12-29T06:27:07;99957.97;;;11.85
69785;BMP280;14177;51.520;6.764;2022-12-29T06:29:44;99966.72;;;11.84
69785;BMP280;14177;51.520;6.764;2022-12-29T06:32:12;99965.50;;;11.91
69785;BMP280;14177;51.520;6.764;2022-12-29T06:34:45;99957.69;;;11.91
69785;BMP280;14177;51.520;6.764;2022-12-29T06:37:12;99948.81;;;11.95
69785;BMP280;14177;51.520;6.764;2022-12-29T06:39:40;99942.06;;;11.91
69785;BMP280;14177;51.520;6.764;2022-12-29T06:42:10;99957.38;;;11.97
69785;BMP280;14177;51.520;6.764;2022-12-29T06:44:43;99960.75;;;11.99
69785;BMP280;14177;51.520;6.764;2022-12-29T06:47:13;99960.53;;;12.04
69785;BMP280;14177;51.520;6.764;2022-12-29T06:49:40;99975.31;;;12.03
69785;BMP280;14177;51.520;6.764;2022-12-29T06:52:07;99961.78;;;11.97
69785;BMP280;14177;51.520;6.764;2022-12-29T06:54:39;99980.66;;;12.00
69785;BMP280;14177;51.520;6.764;2022-12-29T06:57:06;99981.53;;;12.01
69785;BMP280;14177;51.520;6.764;2022-12-29T06:59:34;99980.75;;;11.99
69785;BMP280;14177;51.520;6.764;2022-12-29T07:02:19;99968.66;;;11.98
69785;BMP280;14177;51.520;6.764;2022-12-29T07:05:24;99980.44;;;11.88
69785;BMP280;14177;51.520;6.764;2022-12-29T07:07:55;99974.22;;;11.90
69785;BMP280;14177;51.520;6.764;2022-12-29T07:10:25;99968.09;;;11.91
69785;BMP280;14177;51.520;6.764;2022-12-29T07:12:57;99976.06;;;11.88
69785;BMP280;14177;51.520;6.764;2022-12-29T07:15:28;99974.31;;;11.89
69785;BMP280;14177;51.520;6.764;2022-12-29T07:17:58;99970.16;;;11.85
69785;BMP280;14177;51.520;6.764;2022-12-29T07:20:31;99975.91;;;11.91
69785;BMP280;14177;51.520;6.764;2022-12-29T07:23:01;99990.59;;;11.92
69785;BMP280;14177;51.520;6.764;2022-12-29T07:25:30;99992.91;;;11.98
69785;BMP280;14177;51.520;6.764;2022-12-29T07:28:01;99994.97;;;12.08
69785;BMP280;14177;51.520;6.764;2022-12-29T07:30:29;99989.25;;;12.19
69785;BMP280;14177;51.520;6.764;2022-12-29T07:33:03;99983.28;;;12.17
69785;BMP280;14177;51.520;6.764;2022-12-29T07:36:01;99981.66;;;12.14
69785;BMP280;14177;51.520;6.764;2022-12-29T07:38:40;99994.78;;;12.13
69785;BMP280;14177;51.520;6.764;2022-12-29T07:41:14;99994.47;;;12.19
69785;BMP280;14177;51.520;6.764;2022-12-29T07:43:41;99993.25;;;12.26
69785;BMP280;14177;51.520;6.764;2022-12-29T07:46:21;99996.31;;;12.34
69785;BMP280;14177;51.520;6.764;2022-12-29T07:49:21;100004.13;;;12.34
69785;BMP280;14177;51.520;6.764;2022-12-29T07:51:52;100004.28;;;12.31
69785;BMP280;14177;51.520;6.764;2022-12-29T07:54:23;100005.06;;;12.33
69785;BMP280;14177;51.520;6.764;2022-12-29T07:56:51;100019.13;;;12.29
69785;BMP280;14177;51.520;6.764;2022-12-29T07:59:21;100017.75;;;12.22
69785;BMP280;14177;51.520;6.764;2022-12-29T08:01:50;100011.31;;;12.29
69785;BMP280;14177;51.520;6.764;2022-12-29T08:04:17;100010.09;;;12.36
69785;BMP280;14177;51.520;6.764;2022-12-29T08:06:45;100013.63;;;12.35
69785;BMP280;14177;51.520;6.764;2022-12-29T08:09:12;100006.72;;;12.34
69785;BMP280;14177;51.520;6.764;2022-12-29T08:12:11;100033.22;;;12.25
69785;BMP280;14177;51.520;6.764;2022-12-29T08:14:55;100035.22;;;12.20
69785;BMP280;14177;51.520;6.764;2022-12-29T08:17:48;100035.97;;;12.22
69785;BMP280;14177;51.520;6.764;2022-12-29T08:20:17;100062.00;;;12.22
69785;BMP280;14177;51.520;6.764;2022-12-29T08:22:47;100050.53;;;12.26
69785;BMP280;14177;51.520;6.764;2022-12-29T08:25:17;100058.50;;;12.23
69785;BMP280;14177;51.520;6.764;2022-12-29T08:27:49;100053.28;;;12.23
69785;BMP280;14177;51.520;6.764;2022-12-29T08:30:31;100056.38;;;12.12
69785;BMP280;14177;51.520;6.764;2022-12-29T08:33:01;100067.09;;;12.07
69785;BMP280;14177;51.520;6.764;2022-12-29T08:35:30;100061.06;;;12.06
69785;BMP280;14177;51.520;6.764;2022-12-29T08:37:57;100062.25;;;11.99
69785;BMP280;14177;51.520;6.764;2022-12-29T08:40:24;100057.84;;;12.01
69785;BMP280;14177;51.520;6.764;2022-12-29T08:42:51;100065.63;;;12.01
69785;BMP280;14177;51.520;6.764;2022-12-29T08:45:18;100062.25;;;11.99
69785;BMP280;14177;51.520;6.764;2022-12-29T08:47:46;100063.41;;;11.94
69785;BMP280;14177;51.520;6.764;2022-12-29T08:50:13;100052.63;;;12.01
69785;BMP280;14177;51.520;6.764;2022-12-29T08:52:40;100070.84;;;12.01
69785;BMP280;14177;51.520;6.764;2022-12-29T08:55:08;100064.13;;;12.14
69785;BMP280;14177;51.520;6.764;2022-12-29T08:57:35;100066.22;;;12.24
69785;BMP280;14177;51.520;6.764;2022-12-29T09:00:15;100067.06;;;12.25
69785;BMP280;14177;51.520;6.764;2022-12-29T09:02:43;100072.13;;;12.28
69785;BMP280;14177;51.520;6.764;2022-12-29T09:05:13;100055.59;;;12.29
69785;BMP280;14177;51.520;6.764;2022-12-29T09:07:40;100068.31;;;12.35
69785;BMP280;14177;51.520;6.764;2022-12-29T09:10:07;100068.00;;;12.41
69785;BMP280;14177;51.520;6.764;2022-12-29T09:12:36;100065.69;;;12.52
69785;BMP280;14177;51.520;6.764;2022-12-29T09:15:06;100068.16;;;12.55
69785;BMP280;14177;51.520;6.764;2022-12-29T09:17:34;100059.22;;;12.60
69785;BMP280;14177;51.520;6.764;2022-12-29T09:20:19;100058.34;;;12.60
69785;BMP280;14177;51.520;6.764;2022-12-29T09:22:48;100075.16;;;12.54
69785;BMP280;14177;51.520;6.764;2022-12-29T09:25:18;100077.91;;;12.51
69785;BMP280;14177;51.520;6.764;2022-12-29T09:27:46;100066.00;;;12.46
69785;BMP280;14177;51.520;6.764;2022-12-29T09:30:14;100078.09;;;12.47
69785;BMP280;14177;51.520;6.764;2022-12-29T09:32:43;100087.00;;;12.43
69785;BMP280;14177;51.520;6.764;2022-12-29T09:35:14;100085.63;;;12.36
69785;BMP280;14177;51.520;6.764;2022-12-29T09:37:43;100081.09;;;12.39
69785;BMP280;14177;51.520;6.764;2022-12-29T09:40:30;100090.66;;;12.39
69785;BMP280;14177;51.520;6.764;2022-12-29T09:43:45;100087.31;;;12.37
69785;BMP280;14177;51.520;6.764;2022-12-29T09:46:38;100099.41;;;12.38
69785;BMP280;14177;51.520;6.764;2022-12-29T09:49:35;100068.16;;;12.38
69785;BMP280;14177;51.520;6.764;2022-12-29T09:52:19;100093.44;;;12.36
69785;BMP280;14177;51.520;6.764;2022-12-29T09:55:05;100088.16;;;12.37
69785;BMP280;14177;51.520;6.764;2022-12-29T09:58:02;100103.88;;;12.36
69785;BMP280;14177;51.520;6.764;2022-12-29T10:01:01;100102.63;;;12.43
69785;BMP280;14177;51.520;6.764;2022-12-29T10:03:49;100097.09;;;12.49
69785;BMP280;14177;51.520;6.764;2022-12-29T10:06:46;100091.91;;;12.49
69785;BMP280;14177;51.520;6.764;2022-12-29T10:09:48;100084.69;;;12.54
69785;BMP280;14177;51.520;6.764;2022-12-29T10:12:31;100104.25;;;12.62
69785;BMP280;14177;51.520;6.764;2022-12-29T10:21:22;100107.69;;;12.63
69785;BMP280;14177;51.520;6.764;2022-12-29T10:23:53;100101.72;;;12.61
69785;BMP280;14177;51.520;6.764;2022-12-29T10:26:25;100119.19;;;12.59
69785;BMP280;14177;51.520;6.764;2022-12-29T10:29:04;100120.88;;;12.60
69785;BMP280;14177;51.520;6.764;2022-12-29T10:31:44;100140.88;;;12.59
69785;BMP280;14177;51.520;6.764;2022-12-29T10:34:41;100111.53;;;12.56
69785;BMP280;14177;51.520;6.764;2022-12-29T10:37:37;100108.78;;;12.59
69785;BMP280;14177;51.520;6.764;2022-12-29T10:42:58;100133.91;;;12.60
69785;BMP280;14177;51.520;6.764;2022-12-29T10:45:30;100125.16;;;12.61
69785;BMP280;14177;51.520;6.764;2022-12-29T10:48:15;100120.97;;;12.58
69785;BMP280;14177;51.520;6.764;2022-12-29T10:50:47;100122.56;;;12.61
69785;BMP280;14177;51.520;6.764;2022-12-29T10:53:24;100132.97;;;12.61
69785;BMP280;14177;51.520;6.764;2022-12-29T10:55:58;100126.03;;;12.61
69785;BMP280;14177;51.520;6.764;2022-12-29T10:58:29;100139.88;;;12.62
69785;BMP280;14177;51.520;6.764;2022-12-29T11:00:56;100129.47;;;12.62
69785;BMP280;14177;51.520;6.764;2022-12-29T11:06:24;100137.56;;;12.56
69785;BMP280;14177;51.520;6.764;2022-12-29T11:08:56;100152.28;;;12.57
69785;BMP280;14177;51.520;6.764;2022-12-29T11:11:36;100143.34;;;12.62
69785;BMP280;14177;51.520;6.764;2022-12-29T11:14:23;100158.44;;;12.73
69785;BMP280;14177;51.520;6.764;2022-12-29T11:17:22;100153.69;;;12.81
69785;BMP280;14177;51.520;6.764;2022-12-29T11:20:57;100155.09;;;12.88
69785;BMP280;14177;51.520;6.764;2022-12-29T11:28:16;100160.81;;;12.77
69785;BMP280;14177;51.520;6.764;2022-12-29T11:31:16;100179.28;;;12.73
69785;BMP280;14177;51.520;6.764;2022-12-29T11:33:45;100163.94;;;12.67
69785;BMP280;14177;51.520;6.764;2022-12-29T11:36:42;100156.22;;;12.65
69785;BMP280;14177;51.520;6.764;2022-12-29T11:43:44;100176.94;;;12.50
69785;BMP280;14177;51.520;6.764;2022-12-29T11:46:20;100181.22;;;12.51
69785;BMP280;14177;51.520;6.764;2022-12-29T11:48:50;100182.78;;;12.55
69785;BMP280;14177;51.520;6.764;2022-12-29T11:51:26;100202.06;;;12.51
69785;BMP280;14177;51.520;6.764;2022-12-29T11:53:58;100198.50;;;12.53
69785;BMP280;14177;51.520;6.764;2022-12-29T11:56:41;100195.03;;;12.53
69785;BMP280;14177;51.520;6.764;2022-12-29T12:02:00;100207.22;;;12.52
69785;BMP280;14177;51.520;6.764;2022-12-29T12:04:36;100205.53;;;12.51
69785;BMP280;14177;51.520;6.764;2022-12-29T12:07:20;100205.44;;;12.53
69785;BMP280;14177;51.520;6.764;2022-12-29T12:10:14;100202.03;;;12.52
69785;BMP280;14177;51.520;6.764;2022-12-29T12:13:14;100211.56;;;12.52
69785;BMP280;14177;51.520;6.764;2022-12-29T12:15:51;100205.59;;;12.50
69785;BMP280;14177;51.520;6.764;2022-12-29T12:21:29;100209.75;;;12.54
69785;BMP280;14177;51.520;6.764;2022-12-29T12:30:22;100213.25;;;12.36
69785;BMP280;14177;51.520;6.764;2022-12-29T12:39:10;100230.06;;;12.29
69785;BMP280;14177;51.520;6.764;2022-12-29T12:51:00;100240.03;;;12.19
69785;BMP280;14177;51.520;6.764;2022-12-29T12:57:05;100233.09;;;12.20
69785;BMP280;14177;51.520;6.764;2022-12-29T12:59:53;100246.09;;;12.20
69785;BMP280;14177;51.520;6.764;2022-12-29T13:03:10;100257.06;;;12.26
69785;BMP280;14177;51.520;6.764;2022-12-29T13:09:09;100236.06;;;12.31
69785;BMP280;14177;51.520;6.764;2022-12-29T13:15:21;100268.84;;;12.35
69785;BMP280;14177;51.520;6.764;2022-12-29T13:20:49;100249.84;;;12.33
69785;BMP280;14177;51.520;6.764;2022-12-29T13:23:47;100268.47;;;12.42
69785;BMP280;14177;51.520;6.764;2022-12-29T13:26:32;100261.50;;;12.43
69785;BMP280;14177;51.520;6.764;2022-12-29T13:29:32;100262.56;;;12.39
69785;BMP280;14177;51.520;6.764;2022-12-29T13:36:03;100250.63;;;12.35
69785;BMP280;14177;51.520;6.764;2022-12-29T13:39:19;100262.13;;;12.48
69785;BMP280;14177;51.520;6.764;2022-12-29T13:42:04;100276.72;;;12.52
69785;BMP280;14177;51.520;6.764;2022-12-29T13:44:51;100273.41;;;12.48
69785;BMP280;14177;51.520;6.764;2022-12-29T13:48:23;100266.66;;;12.44
69785;BMP280;14177;51.520;6.764;2022-12-29T13:50:58;100266.56;;;12.46
69785;BMP280;14177;51.520;6.764;2022-12-29T13:56:36;100284.66;;;12.30
69785;BMP280;14177;51.520;6.764;2022-12-29T13:59:27;100276.22;;;12.25
69785;BMP280;14177;51.520;6.764;2022-12-29T14:06:20;100288.88;;;12.14
69785;BMP280;14177;51.520;6.764;2022-12-29T14:08:52;100281.16;;;12.13
69785;BMP280;14177;51.520;6.764;2022-12-29T14:11:40;100311.59;;;12.11
69785;BMP280;14177;51.520;6.764;2022-12-29T14:14:30;100286.91;;;12.01
69785;BMP280;14177;51.520;6.764;2022-12-29T14:17:12;100278.72;;;11.90
69785;BMP280;14177;51.520;6.764;2022-12-29T14:20:46;100296.53;;;11.79
69785;BMP280;14177;51.520;6.764;2022-12-29T14:23:50;100293.28;;;11.74
69785;BMP280;14177;51.520;6.764;2022-12-29T14:31:54;100297.63;;;11.54
69785;BMP280;14177;51.520;6.764;2022-12-29T14:34:45;100304.72;;;11.50
69785;BMP280;14177;51.520;6.764;2022-12-29T14:37:32;100297.81;;;11.49
69785;BMP280;14177;51.520;6.764;2022-12-29T15:00:00;100319.25;;;11.76
69785;BMP280;14177;51.520;6.764;2022-12-29T15:02:46;100308.91;;;11.74
69785;BMP280;14177;51.520;6.764;2022-12-29T15:05:49;100325.91;;;11.83
69785;BMP280;14177;51.520;6.764;2022-12-29T15:08:25;100326.47;;;11.89
69785;BMP280;14177;51.520;6.764;2022-12-29T15:11:24;100334.28;;;11.89
69785;BMP280;14177;51.520;6.764;2022-12-29T15:13:51;100337.78;;;11.88
69785;BMP280;14177;51.520;6.764;2022-12-29T15:16:31;100326.69;;;11.85
69785;BMP280;14177;51.520;6.764;2022-12-29T15:18:59;100336.09;;;11.87
69785;BMP280;14177;51.520;6.764;2022-12-29T15:21:32;100336.22;;;11.84
69785;BMP280;14177;51.520;6.764;2022-12-29T15:24:00;100332.84;;;11.82
69785;BMP280;14177;51.520;6.764;2022-12-29T15:26:46;100344.94;;;11.83
69785;BMP280;14177;51.520;6.764;2022-12-29T15:29:44;100352.56;;;11.88
69785;BMP280;14177;51.520;6.764;2022-12-29T15:32:22;100334.41;;;11.86
69785;BMP280;14177;51.520;6.764;2022-12-29T15:34:54;100337.72;;;11.90
69785;BMP280;14177;51.520;6.764;2022-12-29T15:37:33;100347.38;;;11.88
69785;BMP280;14177;51.520;6.764;2022-12-29T15:40:01;100354.69;;;11.78
69785;BMP280;14177;51.520;6.764;2022-12-29T15:43:09;100354.25;;;11.69
69785;BMP280;14177;51.520;6.764;2022-12-29T15:45:38;100369.19;;;11.64
69785;BMP280;14177;51.520;6.764;2022-12-29T15:48:15;100370.25;;;11.60
69785;BMP280;14177;51.520;6.764;2022-12-29T15:50:43;100353.22;;;11.51
69785;BMP280;14177;51.520;6.764;2022-12-29T15:53:28;100369.78;;;11.49
69785;BMP280;14177;51.520;6.764;2022-12-29T15:56:05;100376.69;;;11.50
69785;BMP280;14177;51.520;6.764;2022-12-29T15:58:42;100362.72;;;11.52
69785;BMP280;14177;51.520;6.764;2022-12-29T16:01:35;100363.56;;;11.53
69785;BMP280;14177;51.520;6.764;2022-12-29T16:04:07;100367.03;;;11.53
69785;BMP280;14177;51.520;6.764;2022-12-29T16:06:38;100377.44;;;11.53
69785;BMP280;14177;51.520;6.764;2022-12-29T16:09:35;100384.94;;;11.61
69785;BMP280;14177;51.520;6.764;2022-12-29T16:12:21;100389.44;;;11.57
69785;BMP280;14177;51.520;6.764;2022-12-29T16:15:00;100387.63;;;11.59
69785;BMP280;14177;51.520;6.764;2022-12-29T16:17:33;100392.16;;;11.53
69785;BMP280;14177;51.520;6.764;2022-12-29T16:20:37;100389.66;;;11.51
69785;BMP280;14177;51.520;6.764;2022-12-29T16:23:16;100395.22;;;11.42
69785;BMP280;14177;51.520;6.764;2022-12-29T16:25:45;100385.66;;;11.43
69785;BMP280;14177;51.520;6.764;2022-12-29T16:28:23;100410.97;;;11.38
69785;BMP280;14177;51.520;6.764;2022-12-29T16:31:36;100404.53;;;11.26
69785;BMP280;14177;51.520;6.764;2022-12-29T16:37:38;100405.97;;;10.90
69785;BMP280;14177;51.520;6.764;2022-12-29T16:42:48;100428.81;;;10.58
69785;BMP280;14177;51.520;6.764;2022-12-29T16:56:52;100477.19;;;9.60
69785;BMP280;14177;51.520;6.764;2022-12-29T17:02:43;100483.38;;;9.29
69785;BMP280;14177;51.520;6.764;2022-12-29T17:05:32;100489.28;;;9.05
69785;BMP280;14177;51.520;6.764;2022-12-29T17:12:01;100508.44;;;8.69
69785;BMP280;14177;51.520;6.764;2022-12-29T17:15:31;100486.25;;;8.60
69785;BMP280;14177;51.520;6.764;2022-12-29T17:18:24;100477.78;;;8.55
69785;BMP280;14177;51.520;6.764;2022-12-29T17:20:56;100485.38;;;8.61
69785;BMP280;14177;51.520;6.764;2022-12-29T17:23:44;100497.25;;;8.68
69785;BMP280;14177;51.520;6.764;2022-12-29T17:26:12;100492.09;;;8.68
69785;BMP280;14177;51.520;6.764;2022-12-29T17:28:53;100490.25;;;8.72
69785;BMP280;14177;51.520;6.764;2022-12-29T17:31:22;100486.72;;;8.74
69785;BMP280;14177;51.520;6.764;2022-12-29T17:33:53;100487.31;;;8.84
69785;BMP280;14177;51.520;6.764;2022-12-29T17:36:25;100499.31;;;8.86
69785;BMP280;14177;51.520;6.764;2022-12-29T17:39:14;100524.22;;;8.92